createdAt,value
2023-04-03T00:01:39.258Z,97294.69
2023-04-03T00:04:09.317Z,97298.63
2023-04-03T00:07:08.623Z,97322.91
2023-04-03T00:09:36.902Z,97285.06
2023-04-03T00:12:05.581Z,97337.09
2023-04-03T00:14:35.191Z,97348.53
2023-04-03T00:17:05.255Z,97274.69
2023-04-03T00:19:34.123Z,97315.72
2023-04-03T00:22:02.453Z,97326.03
2023-04-03T00:24:30.645Z,97301.44
2023-04-03T00:26:58.859Z,97241.16
2023-04-03T00:29:27.179Z,97340.81
2023-04-03T00:31:57.042Z,97316.34
2023-04-03T00:34:25.897Z,97251.44
2023-04-03T00:36:54.942Z,97333.34
2023-04-03T00:39:23.356Z,97286.16
2023-04-03T00:41:51.580Z,97314.03
2023-04-03T00:44:23.296Z,97219.63
2023-04-03T00:46:51.634Z,97287.81
2023-04-03T00:49:21.889Z,97287.19
2023-04-03T00:51:50.697Z,97267.81
2023-04-03T00:54:21.100Z,97317.19
2023-04-03T00:56:50.370Z,97320.50
2023-04-03T00:59:26.356Z,97314.69
2023-04-03T01:01:56.186Z,97285.72
2023-04-03T01:04:34.175Z,97271.13
2023-04-03T01:07:06.936Z,97137.94
2023-04-03T01:09:36.886Z,97217.13
2023-04-03T01:12:17.735Z,97295.31
2023-04-03T01:14:47.172Z,97275.97
2023-04-03T01:17:34.403Z,97186.63
2023-04-03T01:20:59.984Z,97319.91
2023-04-03T01:23:45.400Z,97299.06
2023-04-03T01:26:14.165Z,97304.88
2023-04-03T01:28:42.499Z,97243.25
2023-04-03T01:31:20.716Z,97297.59
2023-04-03T01:33:51.904Z,97285.31
2023-04-03T01:36:25.138Z,97277.50
2023-04-03T01:38:54.704Z,97295.94
2023-04-03T01:41:24.094Z,97283.88
2023-04-03T01:43:55.632Z,97320.00
2023-04-03T01:46:24.234Z,97265.41
2023-04-03T01:48:54.182Z,97285.53
2023-04-03T01:51:22.452Z,97302.69
2023-04-03T01:53:52.559Z,97282.28
2023-04-03T01:56:21.143Z,97326.97
2023-04-03T01:58:50.562Z,97248.88
2023-04-03T02:01:43.286Z,97301.34
2023-04-03T02:04:18.005Z,97213.78
2023-04-03T02:06:46.287Z,97306.78
2023-04-03T02:09:14.680Z,97274.28
2023-04-03T02:11:43.043Z,97308.22
2023-04-03T02:14:12.093Z,97291.78
2023-04-03T02:16:40.612Z,97268.00
2023-04-03T02:19:09.047Z,97292.19
2023-04-03T02:21:38.656Z,97283.22
2023-04-03T02:24:07.778Z,97312.56
2023-04-03T02:26:36.434Z,97273.63
2023-04-03T02:29:07.401Z,97286.03
2023-04-03T02:31:37.233Z,97294.03
2023-04-03T02:34:06.830Z,97276.75
2023-04-03T02:36:38.257Z,97293.94
2023-04-03T02:39:09.947Z,97294.06
2023-04-03T02:41:38.172Z,97301.44
2023-04-03T02:44:13.375Z,97293.63
2023-04-03T02:46:42.097Z,97296.56
2023-04-03T02:49:10.453Z,97316.03
2023-04-03T02:51:40.467Z,97329.88
2023-04-03T02:54:09.115Z,97278.44
2023-04-03T02:56:40.379Z,97305.94
2023-04-03T02:59:08.691Z,97295.53
2023-04-03T03:01:39.769Z,97311.75
2023-04-03T03:04:08.017Z,97314.03
2023-04-03T03:06:36.284Z,97273.63
2023-04-03T03:09:06.892Z,97295.19
2023-04-03T03:11:35.996Z,97312.78
2023-04-03T03:14:04.666Z,97296.88
2023-04-03T03:16:32.977Z,97311.66
2023-04-03T03:19:01.391Z,97283.22
2023-04-03T03:21:30.067Z,97285.69
2023-04-03T03:23:58.299Z,97279.16
2023-04-03T03:26:27.934Z,97322.97
2023-04-03T03:28:57.020Z,97326.09
2023-04-03T03:31:25.458Z,97293.63
2023-04-03T03:33:54.113Z,97313.47
2023-04-03T03:36:22.388Z,97290.47
2023-04-03T03:38:50.671Z,97348.53
2023-04-03T03:41:18.937Z,97338.94
2023-04-03T03:43:48.763Z,97311.03
2023-04-03T03:46:18.386Z,97329.56
2023-04-03T03:48:46.655Z,97276.84
2023-04-03T03:51:15.032Z,97320.66
2023-04-03T03:53:43.334Z,97307.13
2023-04-03T03:56:16.007Z,97210.81
2023-04-03T03:58:46.057Z,97298.78
2023-04-03T04:01:17.774Z,97284.25
2023-04-03T04:03:49.908Z,97277.06
2023-04-03T04:06:22.758Z,97312.94
2023-04-03T04:08:51.967Z,97308.44
2023-04-03T04:11:20.848Z,97328.72
2023-04-03T04:13:49.515Z,97297.91
2023-04-03T04:16:22.410Z,97328.72
2023-04-03T04:18:50.642Z,97298.31
2023-04-03T04:21:19.883Z,97253.03
2023-04-03T04:23:48.695Z,97270.22
2023-04-03T04:26:17.163Z,97262.53
2023-04-03T04:28:45.544Z,97315.19
2023-04-03T04:31:13.825Z,97363.56
2023-04-03T04:33:44.302Z,97282.84
2023-04-03T04:36:15.859Z,97289.88
2023-04-03T04:38:46.845Z,97332.63
2023-04-03T04:41:15.782Z,97332.03
2023-04-03T04:43:44.499Z,97300.75
2023-04-03T04:46:13.778Z,97285.09
2023-04-03T04:48:49.253Z,97301.22
2023-04-03T04:51:21.040Z,97303.88
2023-04-03T04:53:49.361Z,97310.69
2023-04-03T04:56:19.787Z,97313.66
2023-04-03T04:58:48.883Z,97299.00
2023-04-03T05:01:20.744Z,97285.56
2023-04-03T05:03:57.995Z,97268.78
2023-04-03T05:06:27.034Z,97341.34
2023-04-03T05:08:57.559Z,97317.56
2023-04-03T05:11:26.646Z,97308.50
2023-04-03T05:13:55.323Z,97275.41
2023-04-03T05:16:26.413Z,97319.13
2023-04-03T05:18:55.101Z,97359.53
2023-04-03T05:21:27.151Z,97306.44
2023-04-03T05:23:55.968Z,97320.75
2023-04-03T05:26:24.484Z,97289.63
2023-04-03T05:28:53.138Z,97384.75
2023-04-03T05:31:22.554Z,97340.22
2023-04-03T05:33:51.564Z,97284.34
2023-04-03T05:36:20.577Z,97367.84
2023-04-03T05:38:57.162Z,97250.78
2023-04-03T05:41:26.626Z,97297.09
2023-04-03T05:43:55.341Z,97345.75
2023-04-03T05:46:25.711Z,97278.06
2023-04-03T05:48:57.592Z,97327.56
2023-04-03T05:51:35.807Z,97273.28
2023-04-03T05:54:18.898Z,97302.16
2023-04-03T05:56:47.559Z,97392.75
2023-04-03T05:59:16.032Z,97345.47
2023-04-03T06:01:44.391Z,97310.53
2023-04-03T06:04:14.407Z,97318.22
2023-04-03T06:06:49.495Z,97353.44
2023-04-03T06:09:19.848Z,97305.22
2023-04-03T06:11:48.005Z,97383.06
2023-04-03T06:14:17.148Z,97396.88
2023-04-03T06:16:45.663Z,97366.13
2023-04-03T06:19:15.200Z,97359.78
2023-04-03T06:21:49.118Z,97362.72
2023-04-03T06:24:20.921Z,97301.31
2023-04-03T06:26:49.877Z,97360.25
2023-04-03T06:29:18.148Z,97345.91
2023-04-03T06:31:46.492Z,97314.63
2023-04-03T06:34:15.124Z,97333.00
2023-04-03T06:36:43.973Z,97344.00
2023-04-03T06:39:15.443Z,97310.31
2023-04-03T06:41:45.653Z,97351.31
2023-04-03T06:44:16.748Z,97353.50
2023-04-03T06:46:47.422Z,97325.41
2023-04-03T06:49:16.083Z,97358.44
2023-04-03T06:51:44.256Z,97381.31
2023-04-03T06:54:12.833Z,97368.69
2023-04-03T06:56:41.037Z,97360.28
2023-04-03T06:59:12.510Z,97256.94
2023-04-03T07:01:41.702Z,97389.88
2023-04-03T07:04:10.444Z,97407.41
2023-04-03T07:06:38.673Z,97400.41
2023-04-03T07:09:12.029Z,97391.78
2023-04-03T07:11:42.103Z,97333.44
2023-04-03T07:14:11.818Z,97419.19
2023-04-03T07:16:41.865Z,97390.63
2023-04-03T07:19:10.970Z,97388.03
2023-04-03T07:21:39.217Z,97387.09
2023-04-03T07:24:09.980Z,97416.78
2023-04-03T07:26:42.041Z,97406.78
2023-04-03T07:29:12.140Z,97440.56
2023-04-03T07:31:42.579Z,97417.72
2023-04-03T07:34:11.188Z,97424.81
2023-04-03T07:36:39.708Z,97413.84
2023-04-03T07:39:09.144Z,97344.56
2023-04-03T07:41:37.926Z,97467.88
2023-04-03T07:44:06.716Z,97443.25
2023-04-03T07:46:36.233Z,97394.56
2023-04-03T07:49:04.637Z,97408.84
2023-04-03T07:51:32.836Z,97476.63
2023-04-03T07:54:01.114Z,97425.13
2023-04-03T07:56:29.401Z,97418.09
2023-04-03T07:58:57.635Z,97335.22
2023-04-03T08:01:25.858Z,97368.88
2023-04-03T08:03:56.276Z,97419.34
2023-04-03T08:06:37.503Z,97386.13
2023-04-03T08:09:13.181Z,97334.53
2023-04-03T08:11:41.434Z,97413.63
2023-04-03T08:14:11.938Z,97440.56
2023-04-03T08:16:40.241Z,97418.50
2023-04-03T08:19:15.495Z,97419.09
2023-04-03T08:21:52.126Z,97426.34
2023-04-03T08:24:20.462Z,97406.88
2023-04-03T08:26:51.289Z,97435.38
2023-04-03T08:29:19.535Z,97412.16
2023-04-03T08:31:47.793Z,97443.28
2023-04-03T08:34:17.575Z,97414.75
2023-04-03T08:36:46.234Z,97463.66
2023-04-03T08:39:14.888Z,97440.22
2023-04-03T08:41:45.676Z,97401.03
2023-04-03T08:44:19.768Z,97403.97
2023-04-03T08:47:05.565Z,97430.81
2023-04-03T08:49:41.029Z,97468.72
2023-04-03T08:52:16.022Z,97400.84
2023-04-03T08:54:52.710Z,97458.22
2023-04-03T08:57:29.080Z,97416.91
2023-04-03T08:59:59.981Z,97457.41
2023-04-03T09:02:35.762Z,97451.09
2023-04-03T09:05:14.244Z,97441.88
2023-04-03T09:07:50.094Z,97371.25
2023-04-03T09:10:25.868Z,97443.13
2023-04-03T09:13:02.524Z,97422.41
2023-04-03T09:15:38.418Z,97393.94
2023-04-03T09:18:16.809Z,97440.88
2023-04-03T09:20:55.226Z,97429.41
2023-04-03T09:23:31.485Z,97440.16
2023-04-03T09:26:06.070Z,97465.16
2023-04-03T09:28:49.269Z,97427.41
2023-04-03T09:31:25.937Z,97435.84
2023-04-03T09:33:59.026Z,97440.38
2023-04-03T09:36:43.956Z,97461.84
2023-04-03T09:39:16.992Z,97465.75
2023-04-03T09:42:00.459Z,97417.56
2023-04-03T09:44:31.303Z,97443.03
2023-04-03T09:47:00.070Z,97418.13
2023-04-03T09:50:12.570Z,97457.50
2023-04-03T09:52:43.596Z,97452.44
2023-04-03T09:55:18.460Z,97388.03
2023-04-03T09:57:47.647Z,97468.44
2023-04-03T10:00:26.282Z,97405.25
2023-04-03T10:03:27.382Z,97382.22
2023-04-03T10:05:58.603Z,97396.56
2023-04-03T10:08:32.323Z,97440.13
2023-04-03T10:11:16.827Z,97454.53
2023-04-03T10:14:00.261Z,97465.69
2023-04-03T10:16:50.227Z,97462.88
2023-04-03T10:19:36.700Z,97347.63
2023-04-03T10:22:15.511Z,97359.97
2023-04-03T10:24:55.299Z,97456.06
2023-04-03T10:27:39.163Z,97437.75
2023-04-03T10:30:23.405Z,97440.22
2023-04-03T10:33:03.009Z,97382.50
2023-04-03T10:35:47.140Z,97441.81
2023-04-03T10:38:23.333Z,97414.94
2023-04-03T10:41:04.942Z,97428.59
2023-04-03T10:43:43.691Z,97426.81
2023-04-03T10:46:17.771Z,97354.91
2023-04-03T10:49:06.124Z,97428.16
2023-04-03T10:51:44.105Z,97375.53
2023-04-03T10:54:15.954Z,97372.97
2023-04-03T10:56:57.952Z,97389.41
2023-04-03T10:59:37.820Z,97390.84
2023-04-03T11:02:16.581Z,97414.59
2023-04-03T11:04:47.845Z,97388.34
2023-04-03T11:07:24.199Z,97385.00
2023-04-03T11:09:56.389Z,97409.88
2023-04-03T11:12:32.211Z,97355.31
2023-04-03T11:15:01.265Z,97393.97
2023-04-03T11:17:36.189Z,97357.19
2023-04-03T11:20:16.310Z,97357.00
2023-04-03T11:22:47.587Z,97394.34
2023-04-03T11:25:24.388Z,97368.72
2023-04-03T11:27:59.730Z,97364.00
2023-04-03T11:30:35.010Z,97411.34
2023-04-03T11:33:39.611Z,97377.91
2023-04-03T11:36:25.469Z,97376.59
2023-04-03T11:39:12.145Z,97353.13
2023-04-03T11:41:40.489Z,97399.41
2023-04-03T11:44:38.575Z,97378.66
2023-04-03T11:47:09.110Z,97405.00
2023-04-03T11:49:56.387Z,97366.31
2023-04-03T11:52:59.574Z,97356.59
2023-04-03T11:56:32.522Z,97371.56
2023-04-03T11:59:25.745Z,97329.50
2023-04-03T12:05:29.374Z,97264.00
2023-04-03T12:08:27.138Z,97324.56
2023-04-03T12:11:21.947Z,97252.72
2023-04-03T12:14:06.422Z,97294.75
2023-04-03T12:16:47.074Z,97360.56
2023-04-03T12:19:42.937Z,97390.59
2023-04-03T12:22:18.050Z,97316.22
2023-04-03T12:24:49.456Z,97347.38
2023-04-03T12:27:39.107Z,97276.75
2023-04-03T12:30:19.329Z,97374.66
2023-04-03T12:33:20.881Z,97322.91
2023-04-03T12:36:01.957Z,97353.66
2023-04-03T12:39:12.255Z,97355.16
2023-04-03T12:41:48.213Z,97343.69
2023-04-03T12:44:39.074Z,97354.56
2023-04-03T12:47:33.873Z,97378.13
2023-04-03T12:50:05.174Z,97351.44
2023-04-03T12:52:40.593Z,97327.66
2023-04-03T12:55:17.355Z,97313.69
2023-04-03T12:57:46.712Z,97312.91
2023-04-03T13:00:31.340Z,97334.81
2023-04-03T13:03:00.109Z,97353.47
2023-04-03T13:05:30.650Z,97341.38
2023-04-03T13:08:04.122Z,97272.09
2023-04-03T13:10:33.482Z,97301.03
2023-04-03T13:13:11.679Z,97343.22
2023-04-03T13:15:47.136Z,97341.53
2023-04-03T13:18:32.143Z,97293.91
2023-04-03T13:21:06.350Z,97289.03
2023-04-03T13:23:37.745Z,97309.22
2023-04-03T13:26:07.446Z,97318.25
2023-04-03T13:28:36.814Z,97347.41
2023-04-03T13:31:17.857Z,97309.38
2023-04-03T13:33:59.476Z,97347.31
2023-04-03T13:36:33.249Z,97336.50
2023-04-03T13:39:22.051Z,97328.34
2023-04-03T13:41:52.313Z,97308.19
2023-04-03T13:44:34.005Z,97296.69
2023-04-03T13:47:17.885Z,97316.88
2023-04-03T13:50:00.430Z,97294.81
2023-04-03T13:52:36.591Z,97322.31
2023-04-03T13:55:25.700Z,97322.03
2023-04-03T13:57:58.958Z,97249.78
2023-04-03T14:00:39.398Z,97335.41
2023-04-03T14:03:15.844Z,97303.44
2023-04-03T14:06:07.999Z,96971.56
2023-04-03T14:08:43.488Z,97303.81
2023-04-03T14:11:17.266Z,97322.22
2023-04-03T14:13:47.115Z,97344.09
2023-04-03T14:16:17.777Z,97269.50
2023-04-03T14:18:46.678Z,97241.56
2023-04-03T14:21:17.399Z,97303.81
2023-04-03T14:23:48.112Z,97303.19
2023-04-03T14:26:19.670Z,97281.91
2023-04-03T14:28:50.339Z,97295.59
2023-04-03T14:31:19.709Z,97201.25
2023-04-03T14:33:48.450Z,97308.78
2023-04-03T14:36:22.574Z,97265.09
2023-04-03T14:38:53.337Z,97285.38
2023-04-03T14:41:25.363Z,97281.31
2023-04-03T14:43:54.002Z,97260.81
2023-04-03T14:46:32.398Z,97265.84
2023-04-03T14:49:17.136Z,97300.41
2023-04-03T14:51:45.397Z,97265.19
2023-04-03T14:54:22.582Z,97280.81
2023-04-03T14:56:50.866Z,97253.06
2023-04-03T14:59:21.058Z,97230.34
2023-04-03T15:01:49.624Z,97300.28
2023-04-03T15:04:21.587Z,97264.09
2023-04-03T15:06:52.398Z,97247.56
2023-04-03T15:09:25.574Z,97250.63
2023-04-03T15:11:56.726Z,97285.16
2023-04-03T15:14:36.146Z,97285.91
2023-04-03T15:17:06.051Z,97254.72
2023-04-03T15:19:39.928Z,97282.44
2023-04-03T15:22:08.845Z,97282.97
2023-04-03T15:24:38.437Z,97254.34
2023-04-03T15:27:06.674Z,97248.28
2023-04-03T15:29:34.996Z,97260.38
2023-04-03T15:32:03.292Z,97246.13
2023-04-03T15:34:32.251Z,97264.63
2023-04-03T15:37:00.980Z,97279.44
2023-04-03T15:39:29.461Z,97262.56
2023-04-03T15:42:06.787Z,97217.00
2023-04-03T15:44:35.644Z,97278.53
2023-04-03T15:47:05.083Z,97270.88
2023-04-03T15:49:35.351Z,97264.63
2023-04-03T15:52:03.941Z,97251.59
2023-04-03T15:54:32.392Z,97257.38
2023-04-03T15:57:02.441Z,97294.75
2023-04-03T15:59:32.994Z,97248.69
2023-04-03T16:02:08.546Z,97236.84
2023-04-03T16:04:38.258Z,97218.53
2023-04-03T16:07:17.258Z,97196.53
2023-04-03T16:09:45.724Z,97233.91
2023-04-03T16:12:15.559Z,97285.47
2023-04-03T16:14:43.767Z,97287.00
2023-04-03T16:17:12.244Z,97287.75
2023-04-03T16:19:40.530Z,97252.41
2023-04-03T16:22:11.259Z,97266.41
2023-04-03T16:24:40.116Z,97237.81
2023-04-03T16:27:08.441Z,97293.59
2023-04-03T16:29:38.058Z,97272.13
2023-04-03T16:32:06.469Z,97264.56
2023-04-03T16:34:35.102Z,97207.63
2023-04-03T16:37:04.029Z,97291.19
2023-04-03T16:39:32.593Z,97248.31
2023-04-03T16:42:01.000Z,97208.84
2023-04-03T16:44:29.218Z,97262.38
2023-04-03T16:47:22.759Z,97283.13
2023-04-03T16:49:51.088Z,97268.03
2023-04-03T16:52:20.003Z,97268.81
2023-04-03T16:54:48.243Z,97276.00
2023-04-03T16:57:16.460Z,97272.41
2023-04-03T16:59:45.142Z,97291.63
2023-04-03T17:02:14.761Z,97285.56
2023-04-03T17:04:43.440Z,97278.38
2023-04-03T17:07:11.725Z,97280.19
2023-04-03T17:09:40.127Z,97268.75
2023-04-03T17:12:08.259Z,97291.72
2023-04-03T17:14:36.587Z,97296.34
2023-04-03T17:17:05.156Z,97294.97
2023-04-03T17:19:35.333Z,97279.22
2023-04-03T17:22:03.641Z,97355.09
2023-04-03T17:24:32.024Z,97252.00
2023-04-03T17:27:00.235Z,97332.50
2023-04-03T17:29:28.408Z,97282.75
2023-04-03T17:31:56.665Z,97290.09
2023-04-03T17:34:24.897Z,97250.63
2023-04-03T17:36:54.468Z,97271.00
2023-04-03T17:39:22.864Z,97272.47
2023-04-03T17:41:51.309Z,97285.06
2023-04-03T17:44:19.513Z,97293.25
2023-04-03T17:46:47.763Z,97313.28
2023-04-03T17:49:20.551Z,97283.44
2023-04-03T17:51:49.111Z,97436.16
2023-04-03T17:54:18.912Z,97285.53
2023-04-03T17:56:48.221Z,97290.69
2023-04-03T17:59:17.555Z,97306.56
2023-04-03T18:01:47.774Z,97290.72
2023-04-03T18:04:41.798Z,97326.66
2023-04-03T18:07:20.275Z,97336.69
2023-04-03T18:09:52.158Z,97349.66
2023-04-03T18:12:20.428Z,97333.81
2023-04-03T18:14:49.277Z,97352.69
2023-04-03T18:17:19.422Z,97341.75
2023-04-03T18:19:48.314Z,97327.88
2023-04-03T18:22:20.582Z,97337.00
2023-04-03T18:24:50.596Z,97351.56
2023-04-03T18:27:22.398Z,97323.81
2023-04-03T18:29:54.381Z,97324.50
2023-04-03T18:32:23.667Z,97342.06
2023-04-03T18:34:52.347Z,97375.72
2023-04-03T18:37:21.750Z,97290.75
2023-04-03T18:39:51.337Z,97321.66
2023-04-03T18:42:23.922Z,97320.63
2023-04-03T18:44:57.486Z,97381.03
2023-04-03T18:47:26.124Z,97389.00
2023-04-03T18:49:54.525Z,97375.72
2023-04-03T18:52:25.192Z,97367.72
2023-04-03T18:54:54.854Z,97408.75
2023-04-03T18:57:23.022Z,97345.25
2023-04-03T18:59:51.258Z,97299.25
2023-04-03T19:02:22.004Z,97353.91
2023-04-03T19:04:50.328Z,97415.41
2023-04-03T19:07:18.488Z,97391.94
2023-04-03T19:09:46.789Z,97369.00
2023-04-03T19:12:16.593Z,97362.56
2023-04-03T19:14:44.762Z,97411.56
2023-04-03T19:17:12.932Z,97379.59
2023-04-03T19:19:41.739Z,97347.50
2023-04-03T19:22:10.888Z,97370.81
2023-04-03T19:24:39.371Z,97389.06
2023-04-03T19:27:07.611Z,97344.75
2023-04-03T19:29:37.323Z,97378.63
2023-04-03T19:32:05.729Z,97377.19
2023-04-03T19:34:33.944Z,97374.88
2023-04-03T19:37:02.478Z,97352.50
2023-04-03T19:39:35.252Z,97341.97
2023-04-03T19:42:04.744Z,97356.75
2023-04-03T19:44:36.206Z,97317.78
2023-04-03T19:47:05.668Z,97421.28
2023-04-03T19:49:34.263Z,97386.88
2023-04-03T19:52:02.478Z,97357.66
2023-04-03T19:54:30.738Z,97392.78
2023-04-03T19:56:59.281Z,97386.75
2023-04-03T19:59:28.068Z,97386.63
2023-04-03T20:02:22.028Z,97343.09
2023-04-03T20:05:00.389Z,97379.28
2023-04-03T20:08:04.346Z,97408.91
2023-04-03T20:10:32.609Z,97492.84
2023-04-03T20:13:00.845Z,97399.09
2023-04-03T20:15:30.997Z,97398.66
2023-04-03T20:18:01.172Z,97387.16
2023-04-03T20:20:29.546Z,97432.72
2023-04-03T20:22:58.747Z,97408.09
2023-04-03T20:25:46.167Z,97387.09
2023-04-03T20:28:17.023Z,97334.28
2023-04-03T20:30:49.456Z,97421.25
2023-04-03T20:33:19.991Z,97413.31
2023-04-03T20:35:48.405Z,97365.53
2023-04-03T20:38:17.039Z,97373.03
2023-04-03T20:40:45.238Z,97346.63
2023-04-03T20:43:13.936Z,97400.31
2023-04-03T20:45:42.081Z,97410.81
2023-04-03T20:48:13.267Z,97377.50
2023-04-03T20:50:43.045Z,97388.78
2023-04-03T20:53:11.498Z,97378.28
2023-04-03T20:55:39.650Z,97376.97
2023-04-03T20:58:08.613Z,97395.06
2023-04-03T21:00:37.605Z,97381.06
2023-04-03T21:03:06.464Z,97403.78
2023-04-03T21:05:35.763Z,97364.56
2023-04-03T21:09:01.263Z,97408.13
2023-04-03T21:12:26.000Z,97392.75
2023-04-03T21:15:51.954Z,97363.19
2023-04-03T21:18:59.365Z,97374.38
2023-04-03T21:21:27.974Z,97288.25
2023-04-03T21:23:57.151Z,97417.13
2023-04-03T21:26:28.431Z,97394.78
2023-04-03T21:28:57.052Z,97357.88
2023-04-03T21:31:25.739Z,97389.94
2023-04-03T21:33:55.286Z,97395.03
2023-04-03T21:36:23.449Z,97379.91
2023-04-03T21:38:51.658Z,97395.09
2023-04-03T21:41:19.854Z,97347.16
2023-04-03T21:43:48.141Z,97350.63
2023-04-03T21:46:16.421Z,97337.47
2023-04-03T21:48:46.990Z,97386.75
2023-04-03T21:51:17.144Z,97403.47
2023-04-03T21:53:46.628Z,97415.81
2023-04-03T21:56:14.809Z,97351.31
2023-04-03T21:58:43.013Z,97363.16
2023-04-03T22:01:11.909Z,97373.31
2023-04-03T22:03:41.661Z,97253.31
2023-04-03T22:06:21.349Z,97346.75
2023-04-03T22:08:50.025Z,97435.09
2023-04-03T22:11:18.481Z,97399.81
2023-04-03T22:13:46.871Z,97371.66
2023-04-03T22:16:15.057Z,97365.72
2023-04-03T22:18:43.288Z,97400.56
2023-04-03T22:21:11.522Z,97455.00
2023-04-03T22:23:41.192Z,97393.81
2023-04-03T22:26:11.320Z,97382.13
2023-04-03T22:28:41.163Z,97396.84
2023-04-03T22:31:10.802Z,97388.13
2023-04-03T22:33:41.708Z,97441.31
2023-04-03T22:36:12.455Z,97389.13
2023-04-03T22:38:44.185Z,97391.44
2023-04-03T22:41:12.762Z,97329.22
2023-04-03T22:43:41.558Z,97402.97
2023-04-03T22:46:10.845Z,97372.00
2023-04-03T22:48:43.360Z,97437.88
2023-04-03T22:51:12.252Z,97351.38
2023-04-03T22:53:41.795Z,97395.97
2023-04-03T22:56:10.952Z,97437.34
2023-04-03T22:58:39.600Z,97347.88
2023-04-03T23:01:15.794Z,97424.31
2023-04-03T23:03:44.323Z,97381.53
2023-04-03T23:06:13.535Z,97404.38
2023-04-03T23:08:43.766Z,97404.31
2023-04-03T23:11:12.104Z,97381.44
2023-04-03T23:13:40.600Z,97424.91
2023-04-03T23:16:09.021Z,97424.50
2023-04-03T23:18:39.725Z,97373.66
2023-04-03T23:21:09.249Z,97416.66
2023-04-03T23:23:37.474Z,97385.59
2023-04-03T23:26:09.106Z,97384.63
2023-04-03T23:28:37.296Z,97383.38
2023-04-03T23:31:07.052Z,97383.50
2023-04-03T23:33:35.517Z,97363.69
2023-04-03T23:36:09.039Z,97334.84
2023-04-03T23:38:38.119Z,97348.31
2023-04-03T23:41:07.832Z,97397.88
2023-04-03T23:43:37.051Z,97431.03
2023-04-03T23:46:06.770Z,97409.91
2023-04-03T23:48:35.320Z,97408.97
2023-04-03T23:51:03.752Z,97331.16
2023-04-03T23:53:31.942Z,97336.00
2023-04-03T23:56:00.126Z,97374.69
2023-04-03T23:58:29.664Z,97337.34
